Time;durP1;ratioP1;P1;durP2;ratioP2;P2;SDS_P1;SDS_P2;PMS_P1;PMS_P2;Temp;Humidity;BMP_temperature;BMP_pressure;BME280_temperature;BME280_humidity;BME280_pressure;Samples;Min_cycle;Max_cycle;Signal;HPM_P1;HPM_P2
2021/05/21 00:00:05;;;;;;;1.00;1.00;;;;;;;20.32;51.60;100222.66;;;;-58
2021/05/21 00:03:05;;;;;;;1.11;1.01;;;;;;;20.31;51.60;100215.56;;;;-57
2021/05/21 00:06:04;;;;;;;1.04;1.04;;;;;;;20.29;51.62;100208.64;;;;-57
2021/05/21 00:09:04;;;;;;;1.15;1.13;;;;;;;20.27;51.58;100208.23;;;;-57
2021/05/21 00:12:05;;;;;;;1.17;1.07;;;;;;;20.26;51.62;100202.95;;;;-57
2021/05/21 00:15:05;;;;;;;1.00;1.00;;;;;;;20.26;51.61;100197.03;;;;-57
2021/05/21 00:18:05;;;;;;;1.17;1.09;;;;;;;20.25;51.65;100187.09;;;;-57
2021/05/21 00:21:05;;;;;;;1.06;1.01;;;;;;;20.23;51.67;100188.88;;;;-58
2021/05/21 00:24:04;;;;;;;1.23;1.13;;;;;;;20.22;51.66;100184.74;;;;-57
2021/05/21 00:27:05;;;;;;;1.21;1.12;;;;;;;20.21;51.62;100174.17;;;;-58
2021/05/21 00:30:05;;;;;;;1.05;1.05;;;;;;;20.20;51.71;100167.73;;;;-57
2021/05/21 00:33:04;;;;;;;1.10;1.10;;;;;;;20.19;51.62;100156.11;;;;-57
2021/05/21 00:36:05;;;;;;;1.03;1.03;;;;;;;20.17;51.73;100156.60;;;;-57
2021/05/21 00:39:05;;;;;;;1.00;1.00;;;;;;;20.17;51.69;100155.84;;;;-57
2021/05/21 00:42:04;;;;;;;1.02;1.02;;;;;;;20.16;51.67;100149.36;;;;-57
2021/05/21 00:45:04;;;;;;;1.20;1.12;;;;;;;20.15;51.65;100152.70;;;;-57
2021/05/21 00:48:05;;;;;;;1.09;1.00;;;;;;;20.15;51.70;100147.96;;;;-57
2021/05/21 00:51:04;;;;;;;1.05;1.05;;;;;;;20.13;51.75;100143.48;;;;-57
2021/05/21 00:54:04;;;;;;;1.00;1.00;;;;;;;20.12;51.70;100142.69;;;;-57
2021/05/21 00:57:05;;;;;;;1.21;1.14;;;;;;;20.11;51.63;100135.70;;;;-57
2021/05/21 01:00:05;;;;;;;1.00;1.00;;;;;;;20.09;51.72;100129.11;;;;-57
2021/05/21 01:03:04;;;;;;;1.04;1.04;;;;;;;20.08;51.70;100123.33;;;;-57
2021/05/21 01:06:05;;;;;;;1.03;1.03;;;;;;;20.08;51.71;100123.65;;;;-57
2021/05/21 01:09:04;;;;;;;0.99;0.99;;;;;;;20.06;51.72;100130.40;;;;-57
2021/05/21 01:12:04;;;;;;;1.10;1.10;;;;;;;20.06;51.70;100110.56;;;;-57
2021/05/21 01:15:05;;;;;;;1.07;1.01;;;;;;;20.05;51.72;100117.65;;;;-57
2021/05/21 01:18:05;;;;;;;1.49;0.98;;;;;;;20.04;51.65;100107.55;;;;-57
2021/05/21 01:21:04;;;;;;;1.07;1.07;;;;;;;20.03;51.82;100103.26;;;;-57
2021/05/21 01:24:05;;;;;;;1.15;1.10;;;;;;;20.03;51.66;100094.40;;;;-57
2021/05/21 01:27:05;;;;;;;1.09;1.09;;;;;;;20.01;51.68;100093.66;;;;-58
2021/05/21 01:30:04;;;;;;;1.03;1.03;;;;;;;20.01;51.75;100087.88;;;;-57
2021/05/21 01:33:05;;;;;;;1.55;1.00;;;;;;;20.00;51.65;100081.77;;;;-57
2021/05/21 01:36:05;;;;;;;0.99;0.99;;;;;;;19.99;51.67;100079.75;;;;-57
2021/05/21 01:39:06;;;;;;;0.93;0.93;;;;;;;19.98;51.75;100079.17;;;;-57
2021/05/21 01:42:04;;;;;;;1.07;1.03;;;;;;;19.98;51.71;100070.95;;;;-57
2021/05/21 01:45:05;;;;;;;1.02;1.01;;;;;;;19.96;51.71;100061.77;;;;-57
2021/05/21 01:48:05;;;;;;;1.13;1.03;;;;;;;19.96;51.69;100059.58;;;;-57
2021/05/21 01:51:04;;;;;;;1.12;1.08;;;;;;;19.94;51.76;100052.02;;;;-57
2021/05/21 01:54:05;;;;;;;1.06;1.06;;;;;;;19.94;51.73;100051.61;;;;-57
2021/05/21 01:57:04;;;;;;;0.98;0.98;;;;;;;19.92;51.82;100050.01;;;;-57
2021/05/21 02:00:04;;;;;;;0.90;0.90;;;;;;;19.92;51.74;100043.73;;;;-57
2021/05/21 02:03:05;;;;;;;1.03;1.03;;;;;;;19.91;51.79;100037.39;;;;-57
2021/05/21 02:06:04;;;;;;;1.02;1.02;;;;;;;19.91;51.75;100032.92;;;;-58
2021/05/21 02:09:04;;;;;;;1.05;1.05;;;;;;;19.89;51.71;100026.16;;;;-57
2021/05/21 02:12:05;;;;;;;0.97;0.97;;;;;;;19.90;51.77;100029.01;;;;-57
2021/05/21 02:15:04;;;;;;;1.00;1.00;;;;;;;19.88;51.77;100020.00;;;;-57
2021/05/21 02:18:04;;;;;;;1.00;1.00;;;;;;;19.88;51.75;100019.11;;;;-57
2021/05/21 02:21:05;;;;;;;1.00;1.00;;;;;;;19.87;51.77;100016.42;;;;-57
2021/05/21 02:24:05;;;;;;;1.17;1.07;;;;;;;19.86;51.74;100013.10;;;;-57
2021/05/21 02:27:05;;;;;;;1.00;1.00;;;;;;;19.86;51.72;100004.62;;;;-57
2021/05/21 02:30:05;;;;;;;0.90;0.90;;;;;;;19.86;51.81;99995.52;;;;-57
2021/05/21 02:33:04;;;;;;;1.03;1.03;;;;;;;19.85;51.77;99998.45;;;;-57
2021/05/21 02:36:04;;;;;;;1.10;1.10;;;;;;;19.84;51.66;100000.34;;;;-57
2021/05/21 02:39:05;;;;;;;1.09;1.06;;;;;;;19.84;51.79;99989.34;;;;-57
2021/05/21 02:42:04;;;;;;;1.03;1.03;;;;;;;19.83;51.75;99974.96;;;;-57
2021/05/21 02:45:04;;;;;;;1.05;1.02;;;;;;;19.82;51.75;99978.31;;;;-57
2021/05/21 02:48:05;;;;;;;1.17;1.11;;;;;;;19.82;51.74;99974.06;;;;-57
2021/05/21 02:51:04;;;;;;;1.17;1.09;;;;;;;19.81;51.83;99970.41;;;;-57
2021/05/21 02:54:04;;;;;;;1.08;1.08;;;;;;;19.80;51.86;99965.06;;;;-57
2021/05/21 02:57:05;;;;;;;1.03;1.03;;;;;;;19.80;51.80;99958.41;;;;-57
2021/05/21 03:00:04;;;;;;;0.99;0.99;;;;;;;19.79;51.74;99952.45;;;;-57
2021/05/21 03:03:04;;;;;;;1.07;1.07;;;;;;;19.79;51.73;99949.44;;;;-57
2021/05/21 03:06:05;;;;;;;0.99;0.99;;;;;;;19.78;51.84;99944.50;;;;-58
2021/05/21 03:09:04;;;;;;;1.20;1.10;;;;;;;19.77;51.71;99941.07;;;;-57
2021/05/21 03:12:04;;;;;;;0.99;0.99;;;;;;;19.77;51.82;99937.91;;;;-57
2021/05/21 03:15:05;;;;;;;0.99;0.99;;;;;;;19.76;51.73;99940.11;;;;-57
2021/05/21 03:18:05;;;;;;;0.92;0.92;;;;;;;19.76;51.76;99940.52;;;;-57
2021/05/21 03:21:04;;;;;;;1.11;1.05;;;;;;;19.75;51.71;99937.50;;;;-57
2021/05/21 03:24:05;;;;;;;1.06;1.06;;;;;;;19.75;51.87;99943.11;;;;-57
2021/05/21 03:27:04;;;;;;;1.00;1.00;;;;;;;19.74;51.85;99941.01;;;;-57
2021/05/21 03:30:04;;;;;;;1.03;1.03;;;;;;;19.73;51.75;99931.00;;;;-57
2021/05/21 03:33:05;;;;;;;0.90;0.90;;;;;;;19.73;51.80;99927.52;;;;-57
2021/05/21 03:36:05;;;;;;;1.15;1.05;;;;;;;19.73;51.75;99929.79;;;;-57
2021/05/21 03:39:05;;;;;;;1.06;1.06;;;;;;;19.71;51.80;99930.27;;;;-57
2021/05/21 03:42:05;;;;;;;1.03;1.03;;;;;;;19.70;51.81;99927.12;;;;-57
2021/05/21 03:45:05;;;;;;;1.00;1.00;;;;;;;19.70;51.81;99929.21;;;;-57
2021/05/21 03:48:04;;;;;;;1.04;1.04;;;;;;;19.69;51.85;99925.13;;;;-57
2021/05/21 03:51:05;;;;;;;1.03;1.00;;;;;;;19.69;51.74;99920.42;;;;-57
2021/05/21 03:54:04;;;;;;;1.00;1.00;;;;;;;19.69;51.89;99919.28;;;;-57
2021/05/21 03:57:04;;;;;;;0.90;0.90;;;;;;;19.68;51.82;99919.85;;;;-57
2021/05/21 04:00:05;;;;;;;0.86;0.86;;;;;;;19.68;51.82;99917.66;;;;-57
2021/05/21 04:03:04;;;;;;;0.81;0.81;;;;;;;19.67;51.79;99907.74;;;;-57
2021/05/21 04:06:04;;;;;;;1.02;1.00;;;;;;;19.67;51.84;99899.04;;;;-57
2021/05/21 04:09:07;;;;;;;1.01;1.00;;;;;;;19.66;51.86;99900.69;;;;-57
2021/05/21 04:12:04;;;;;;;1.09;1.09;;;;;;;19.65;51.89;99901.59;;;;-57
2021/05/21 04:15:05;;;;;;;1.09;1.09;;;;;;;19.65;51.92;99900.30;;;;-57
2021/05/21 04:18:05;;;;;;;1.15;1.07;;;;;;;19.65;51.84;99895.55;;;;-57
2021/05/21 04:21:04;;;;;;;0.81;0.81;;;;;;;19.63;51.81;99883.28;;;;-57
2021/05/21 04:24:04;;;;;;;0.91;0.91;;;;;;;19.63;51.89;99880.47;;;;-57
2021/05/21 04:27:04;;;;;;;1.20;1.10;;;;;;;19.62;51.81;99880.22;;;;-57
2021/05/21 04:30:04;;;;;;;1.00;1.00;;;;;;;19.62;51.79;99876.80;;;;-57
2021/05/21 04:33:05;;;;;;;0.90;0.90;;;;;;;19.61;51.85;99869.81;;;;-57
2021/05/21 04:36:04;;;;;;;1.01;1.00;;;;;;;19.61;51.89;99869.88;;;;-57
2021/05/21 04:39:04;;;;;;;1.05;1.00;;;;;;;19.60;51.88;99867.54;;;;-57
2021/05/21 04:42:04;;;;;;;1.02;1.02;;;;;;;19.59;51.84;99865.19;;;;-57
2021/05/21 04:45:04;;;;;;;1.11;1.10;;;;;;;19.59;51.91;99865.44;;;;-57
2021/05/21 04:48:04;;;;;;;1.01;1.00;;;;;;;19.58;51.93;99859.83;;;;-57
2021/05/21 04:51:04;;;;;;;1.03;1.03;;;;;;;19.59;51.96;99858.59;;;;-57
2021/05/21 04:54:05;;;;;;;0.98;0.98;;;;;;;19.58;51.96;99855.09;;;;-57
2021/05/21 04:57:04;;;;;;;1.05;1.05;;;;;;;19.58;51.94;99852.91;;;;-57
2021/05/21 05:00:04;;;;;;;1.09;1.00;;;;;;;19.57;51.88;99842.36;;;;-57
2021/05/21 05:03:05;;;;;;;0.94;0.94;;;;;;;19.57;51.86;99832.38;;;;-57
2021/05/21 05:06:04;;;;;;;0.96;0.96;;;;;;;19.56;51.90;99832.52;;;;-57
2021/05/21 05:09:04;;;;;;;0.94;0.94;;;;;;;19.56;51.88;99834.30;;;;-57
2021/05/21 05:12:04;;;;;;;0.90;0.90;;;;;;;19.56;51.93;99829.68;;;;-57
2021/05/21 05:15:04;;;;;;;0.92;0.86;;;;;;;19.55;51.90;99836.59;;;;-57
2021/05/21 05:18:05;;;;;;;1.00;1.00;;;;;;;19.55;51.88;99826.59;;;;-57
2021/05/21 05:21:04;;;;;;;0.90;0.90;;;;;;;19.55;51.77;99827.09;;;;-57
2021/05/21 05:24:05;;;;;;;1.01;1.01;;;;;;;19.55;51.86;99824.81;;;;-57
2021/05/21 05:27:04;;;;;;;0.93;0.93;;;;;;;19.55;51.86;99822.95;;;;-57
2021/05/21 05:30:04;;;;;;;1.02;1.02;;;;;;;19.55;51.92;99817.17;;;;-57
2021/05/21 05:33:04;;;;;;;0.90;0.90;;;;;;;19.55;51.89;99821.89;;;;-57
2021/05/21 05:36:04;;;;;;;1.00;1.00;;;;;;;19.56;51.86;99821.30;;;;-57
2021/05/21 05:39:05;;;;;;;0.95;0.95;;;;;;;19.56;51.87;99813.83;;;;-57
2021/05/21 05:42:04;;;;;;;0.91;0.91;;;;;;;19.56;51.87;99815.45;;;;-57
2021/05/21 05:45:04;;;;;;;0.91;0.91;;;;;;;19.57;51.88;99810.75;;;;-57
2021/05/21 05:48:04;;;;;;;1.08;1.00;;;;;;;19.57;51.85;99804.16;;;;-57
2021/05/21 05:51:05;;;;;;;0.90;0.90;;;;;;;19.58;51.86;99796.52;;;;-57
2021/05/21 05:54:05;;;;;;;1.12;1.00;;;;;;;19.59;51.84;99797.48;;;;-57
2021/05/21 05:57:04;;;;;;;0.90;0.90;;;;;;;19.60;51.79;99799.11;;;;-58
2021/05/21 06:00:04;;;;;;;0.90;0.90;;;;;;;19.60;51.84;99792.35;;;;-52
2021/05/21 06:03:05;;;;;;;0.92;0.92;;;;;;;19.61;51.82;99786.00;;;;-52
2021/05/21 06:06:04;;;;;;;1.04;1.02;;;;;;;19.61;51.79;99788.95;;;;-57
2021/05/21 06:09:06;;;;;;;0.81;0.81;;;;;;;19.62;51.81;99794.13;;;;-53
2021/05/21 06:12:05;;;;;;;0.95;0.95;;;;;;;19.62;51.74;99795.92;;;;-58
2021/05/21 06:15:04;;;;;;;2.32;1.24;;;;;;;19.60;49.98;99792.43;;;;-61
2021/05/21 06:18:04;;;;;;;1.85;1.24;;;;;;;19.55;49.32;99785.08;;;;-59
2021/05/21 06:21:04;;;;;;;4.39;1.40;;;;;;;19.47;48.98;99779.43;;;;-57
2021/05/21 06:24:04;;;;;;;3.43;1.30;;;;;;;19.38;48.54;99775.22;;;;-50
2021/05/21 06:27:18;;;;;;;2.84;1.37;;;;;;;19.26;49.09;99773.66;;;;-54
2021/05/21 06:30:08;;;;;;;2.13;1.40;;;;;;;19.27;49.74;99772.09;;;;-54
2021/05/21 06:33:04;;;;;;;4.35;1.45;;;;;;;19.29;50.00;99773.64;;;;-56
2021/05/21 06:36:04;;;;;;;1.59;1.35;;;;;;;19.31;49.94;99777.12;;;;-55
2021/05/21 06:39:04;;;;;;;1.89;1.30;;;;;;;19.34;50.20;99770.20;;;;-56
2021/05/21 06:42:04;;;;;;;1.46;1.30;;;;;;;19.36;50.32;99759.88;;;;-54
2021/05/21 06:45:04;;;;;;;1.79;1.27;;;;;;;19.37;50.38;99755.00;;;;-54
2021/05/21 06:48:04;;;;;;;2.16;1.33;;;;;;;19.38;50.46;99757.94;;;;-54
2021/05/21 06:51:05;;;;;;;2.73;1.20;;;;;;;19.40;50.52;99763.45;;;;-54
2021/05/21 06:54:04;;;;;;;1.69;1.30;;;;;;;19.41;50.56;99765.39;;;;-54
2021/05/21 06:57:04;;;;;;;1.89;1.30;;;;;;;19.41;50.59;99760.44;;;;-54
2021/05/21 07:00:04;;;;;;;1.45;1.35;;;;;;;19.42;50.65;99763.28;;;;-54
2021/05/21 07:03:04;;;;;;;1.25;1.15;;;;;;;19.43;50.68;99766.69;;;;-54
2021/05/21 07:06:05;;;;;;;1.14;1.10;;;;;;;19.44;50.71;99773.09;;;;-54
2021/05/21 07:09:04;;;;;;;1.39;1.25;;;;;;;19.44;50.73;99772.10;;;;-54
2021/05/21 07:12:04;;;;;;;2.56;1.25;;;;;;;19.45;50.82;99780.58;;;;-57
2021/05/21 07:15:04;;;;;;;1.26;1.16;;;;;;;19.44;50.80;99768.45;;;;-54
2021/05/21 07:18:04;;;;;;;1.41;1.30;;;;;;;19.45;50.81;99775.21;;;;-54
2021/05/21 07:21:04;;;;;;;1.20;1.10;;;;;;;19.44;50.85;99778.38;;;;-54
2021/05/21 07:24:05;;;;;;;1.31;1.21;;;;;;;19.45;50.88;99782.44;;;;-57
2021/05/21 07:27:04;;;;;;;1.91;1.20;;;;;;;19.45;50.87;99782.67;;;;-57
2021/05/21 07:30:04;;;;;;;1.53;1.30;;;;;;;19.45;50.94;99777.39;;;;-54
2021/05/21 07:33:04;;;;;;;1.40;1.28;;;;;;;19.46;50.92;99777.30;;;;-57
2021/05/21 07:36:05;;;;;;;1.35;1.25;;;;;;;19.45;50.93;99781.86;;;;-57
2021/05/21 07:39:04;;;;;;;1.35;1.21;;;;;;;19.46;50.95;99783.64;;;;-57
2021/05/21 07:42:05;;;;;;;1.12;1.10;;;;;;;19.45;50.94;99772.69;;;;-54
2021/05/21 07:45:04;;;;;;;1.30;1.20;;;;;;;19.44;50.96;99761.97;;;;-54
2021/05/21 07:48:04;;;;;;;1.57;1.18;;;;;;;19.45;51.01;99762.77;;;;-57
2021/05/21 07:51:04;;;;;;;1.36;1.26;;;;;;;19.45;50.96;99768.94;;;;-54
2021/05/21 07:54:04;;;;;;;1.36;1.15;;;;;;;19.45;51.04;99767.41;;;;-57
2021/05/21 07:57:04;;;;;;;1.11;1.10;;;;;;;19.45;51.03;99764.40;;;;-57
2021/05/21 08:00:04;;;;;;;1.45;1.24;;;;;;;19.44;51.07;99763.59;;;;-57
2021/05/21 08:03:04;;;;;;;1.26;1.17;;;;;;;19.44;51.11;99761.81;;;;-57
2021/05/21 08:06:04;;;;;;;1.19;1.10;;;;;;;19.45;51.05;99757.83;;;;-57
2021/05/21 08:09:05;;;;;;;1.20;1.04;;;;;;;19.45;51.13;99753.11;;;;-58
2021/05/21 08:12:04;;;;;;;1.51;1.15;;;;;;;19.44;51.10;99753.84;;;;-57
2021/05/21 08:15:04;;;;;;;1.17;1.10;;;;;;;19.44;51.10;99751.31;;;;-57
2021/05/21 08:18:04;;;;;;;1.76;1.27;;;;;;;19.44;51.13;99754.31;;;;-57
2021/05/21 08:21:04;;;;;;;2.93;1.20;;;;;;;19.45;51.36;99750.83;;;;-54
2021/05/21 08:24:04;;;;;;;2.05;1.35;;;;;;;19.46;51.55;99724.89;;;;-48
2021/05/21 08:27:04;;;;;;;2.02;1.39;;;;;;;19.47;51.70;99720.52;;;;-51
2021/05/21 08:30:04;;;;;;;2.08;1.30;;;;;;;19.50;51.74;99724.47;;;;-47
2021/05/21 08:33:05;;;;;;;1.74;1.17;;;;;;;19.49;51.77;99724.23;;;;-48
2021/05/21 08:36:04;;;;;;;1.33;1.23;;;;;;;19.50;51.83;99723.80;;;;-49
2021/05/21 08:39:04;;;;;;;1.84;1.30;;;;;;;19.50;52.15;99731.77;;;;-54
2021/05/21 08:42:04;;;;;;;1.95;1.24;;;;;;;19.53;52.02;99730.70;;;;-55
2021/05/21 08:45:04;;;;;;;2.60;1.28;;;;;;;19.53;52.03;99732.27;;;;-59
2021/05/21 08:48:04;;;;;;;2.51;1.39;;;;;;;19.54;52.01;99741.19;;;;-51
2021/05/21 08:51:04;;;;;;;4.23;1.35;;;;;;;19.55;52.07;99748.19;;;;-48
2021/05/21 08:54:07;;;;;;;3.78;1.41;;;;;;;19.56;51.94;99745.97;;;;-56
2021/05/21 08:57:04;;;;;;;1.65;1.28;;;;;;;19.57;52.04;99751.48;;;;-51
2021/05/21 09:00:04;;;;;;;2.82;1.25;;;;;;;19.59;52.09;99761.49;;;;-49
2021/05/21 09:03:04;;;;;;;2.35;1.40;;;;;;;19.60;52.10;99770.16;;;;-54
2021/05/21 09:06:12;;;;;;;3.24;1.49;;;;;;;19.61;52.14;99770.91;;;;-59
2021/05/21 09:09:05;;;;;;;2.25;1.41;;;;;;;19.62;52.16;99767.06;;;;-52
2021/05/21 09:12:04;;;;;;;3.06;1.40;;;;;;;19.63;52.12;99772.98;;;;-50
2021/05/21 09:15:04;;;;;;;2.96;1.30;;;;;;;19.64;52.10;99775.77;;;;-50
2021/05/21 09:18:08;;;;;;;6.11;1.50;;;;;;;19.65;52.14;99772.84;;;;-56
2021/05/21 09:21:04;;;;;;;1.69;1.27;;;;;;;19.67;52.08;99771.36;;;;-53
2021/05/21 09:24:06;;;;;;;5.61;1.47;;;;;;;19.65;52.15;99776.66;;;;-60
2021/05/21 09:27:04;;;;;;;2.75;1.30;;;;;;;19.68;52.19;99774.11;;;;-55
2021/05/21 09:30:04;;;;;;;2.41;1.30;;;;;;;19.69;52.21;99779.95;;;;-55
2021/05/21 09:33:04;;;;;;;1.75;1.39;;;;;;;19.70;52.14;99771.02;;;;-53
2021/05/21 09:36:04;;;;;;;2.31;1.29;;;;;;;19.70;52.17;99758.17;;;;-47
2021/05/21 09:39:06;;;;;;;4.13;1.30;;;;;;;19.71;52.12;99765.17;;;;-52
2021/05/21 09:42:04;;;;;;;4.12;1.50;;;;;;;19.72;52.19;99770.47;;;;-48
2021/05/21 09:45:04;;;;;;;2.45;1.49;;;;;;;19.73;52.15;99764.27;;;;-48
2021/05/21 09:48:05;;;;;;;2.76;1.43;;;;;;;19.74;52.17;99768.66;;;;-53
2021/05/21 09:51:04;;;;;;;3.81;1.31;;;;;;;19.74;52.20;99766.39;;;;-49
2021/05/21 09:54:04;;;;;;;1.85;1.35;;;;;;;19.75;52.24;99774.66;;;;-52
2021/05/21 09:57:04;;;;;;;1.57;1.20;;;;;;;19.76;52.16;99776.30;;;;-51
2021/05/21 10:00:04;;;;;;;1.82;1.31;;;;;;;19.77;52.16;99783.77;;;;-51
2021/05/21 10:03:04;;;;;;;1.76;1.09;;;;;;;19.78;52.13;99782.47;;;;-54
2021/05/21 10:06:04;;;;;;;1.81;1.20;;;;;;;19.78;52.15;99777.42;;;;-53
2021/05/21 10:09:04;;;;;;;1.99;1.25;;;;;;;19.79;52.14;99777.72;;;;-49
2021/05/21 10:12:04;;;;;;;3.35;1.30;;;;;;;19.81;52.12;99768.70;;;;-51
2021/05/21 10:15:04;;;;;;;1.37;1.21;;;;;;;19.80;52.12;99776.92;;;;-55
2021/05/21 10:18:05;;;;;;;1.58;1.25;;;;;;;19.82;52.19;99779.25;;;;-51
2021/05/21 10:21:04;;;;;;;2.57;1.23;;;;;;;19.82;52.16;99778.70;;;;-52
2021/05/21 10:24:04;;;;;;;1.48;1.20;;;;;;;19.83;52.12;99781.86;;;;-57
2021/05/21 10:27:04;;;;;;;4.39;1.33;;;;;;;19.83;52.22;99785.02;;;;-50
2021/05/21 10:30:04;;;;;;;2.34;1.27;;;;;;;19.84;52.21;99785.27;;;;-52
2021/05/21 10:33:04;;;;;;;5.03;1.27;;;;;;;19.86;52.15;99784.05;;;;-52
2021/05/21 10:36:04;;;;;;;2.35;1.33;;;;;;;19.86;52.03;99784.86;;;;-52
2021/05/21 10:39:04;;;;;;;3.06;1.23;;;;;;;19.85;52.06;99779.23;;;;-51
2021/05/21 10:42:04;;;;;;;2.65;1.29;;;;;;;19.83;51.99;99784.20;;;;-52
2021/05/21 10:45:04;;;;;;;1.86;1.13;;;;;;;19.82;51.97;99775.69;;;;-52
2021/05/21 10:48:06;;;;;;;1.42;1.24;;;;;;;19.82;51.96;99780.50;;;;-52
2021/05/21 10:51:04;;;;;;;1.72;1.20;;;;;;;19.81;52.00;99774.38;;;;-52
2021/05/21 10:54:04;;;;;;;3.02;1.30;;;;;;;19.81;51.90;99776.17;;;;-52
2021/05/21 10:57:04;;;;;;;3.30;1.20;;;;;;;19.80;51.92;99786.36;;;;-52
2021/05/21 11:00:04;;;;;;;1.30;1.14;;;;;;;19.80;51.86;99780.83;;;;-52
2021/05/21 11:03:05;;;;;;;2.05;1.26;;;;;;;19.79;51.85;99770.81;;;;-51
2021/05/21 11:06:04;;;;;;;2.05;1.15;;;;;;;19.79;51.78;99772.53;;;;-52
2021/05/21 11:09:04;;;;;;;1.33;1.15;;;;;;;19.79;51.78;99772.28;;;;-54
2021/05/21 11:12:06;;;;;;;1.73;1.13;;;;;;;19.78;51.82;99774.50;;;;-54
2021/05/21 11:15:04;;;;;;;3.00;1.30;;;;;;;19.79;51.77;99773.67;;;;-51
2021/05/21 11:18:04;;;;;;;1.16;1.05;;;;;;;19.78;51.68;99755.31;;;;-49
2021/05/21 11:21:04;;;;;;;1.89;1.26;;;;;;;19.77;51.68;99770.81;;;;-49
2021/05/21 11:24:06;;;;;;;1.93;1.31;;;;;;;19.77;51.71;99758.07;;;;-49
2021/05/21 11:27:04;;;;;;;1.19;1.09;;;;;;;19.77;51.66;99769.12;;;;-50
2021/05/21 11:30:05;;;;;;;1.35;1.20;;;;;;;19.77;51.67;99765.54;;;;-50
2021/05/21 11:33:04;;;;;;;1.30;0.97;;;;;;;19.76;51.70;99766.94;;;;-50
2021/05/21 11:36:04;;;;;;;1.78;1.08;;;;;;;19.76;51.65;99763.21;;;;-50
2021/05/21 11:39:04;;;;;;;1.55;1.10;;;;;;;19.77;51.63;99771.72;;;;-49
2021/05/21 11:42:04;;;;;;;1.23;1.13;;;;;;;19.76;51.60;99773.20;;;;-49
2021/05/21 11:45:04;;;;;;;2.13;1.12;;;;;;;19.77;51.61;99775.38;;;;-49
2021/05/21 11:48:09;;;;;;;1.17;1.10;;;;;;;19.76;51.62;99775.48;;;;-49
2021/05/21 11:51:08;;;;;;;1.95;1.10;;;;;;;19.76;51.56;99771.66;;;;-51
2021/05/21 11:54:05;;;;;;;1.24;1.14;;;;;;;19.76;51.57;99762.39;;;;-50
2021/05/21 11:57:04;;;;;;;1.30;1.12;;;;;;;19.76;51.60;99755.48;;;;-52
2021/05/21 12:00:04;;;;;;;1.51;1.10;;;;;;;19.75;51.57;99753.12;;;;-52
2021/05/21 12:03:04;;;;;;;1.25;1.13;;;;;;;19.75;51.56;99756.20;;;;-53
2021/05/21 12:06:04;;;;;;;1.20;1.10;;;;;;;19.75;51.58;99758.72;;;;-49
2021/05/21 12:09:04;;;;;;;1.70;1.16;;;;;;;19.75;51.53;99752.39;;;;-54
2021/05/21 12:12:04;;;;;;;1.38;1.17;;;;;;;19.75;51.53;99750.02;;;;-54
2021/05/21 12:15:04;;;;;;;1.95;1.13;;;;;;;19.75;51.55;99761.40;;;;-55
2021/05/21 12:18:04;;;;;;;1.57;1.11;;;;;;;19.75;51.49;99762.46;;;;-54
2021/05/21 12:21:04;;;;;;;1.64;1.28;;;;;;;19.75;51.50;99760.59;;;;-54
2021/05/21 12:24:04;;;;;;;1.87;1.10;;;;;;;19.76;51.46;99759.56;;;;-54
2021/05/21 12:27:04;;;;;;;1.24;1.10;;;;;;;19.75;51.48;99750.10;;;;-54
2021/05/21 12:30:05;;;;;;;1.20;1.10;;;;;;;19.75;51.46;99759.88;;;;-51
2021/05/21 12:33:04;;;;;;;1.19;1.10;;;;;;;19.75;51.41;99754.34;;;;-51
2021/05/21 12:36:04;;;;;;;1.28;1.18;;;;;;;19.75;51.42;99751.01;;;;-51
2021/05/21 12:39:05;;;;;;;1.98;1.15;;;;;;;19.75;51.48;99766.22;;;;-52
2021/05/21 12:42:04;;;;;;;4.53;1.21;;;;;;;19.74;51.54;99754.69;;;;-49
2021/05/21 12:45:04;;;;;;;2.78;1.14;;;;;;;19.76;51.30;99767.52;;;;-53
2021/05/21 12:48:04;;;;;;;1.39;1.26;;;;;;;19.77;51.22;99761.16;;;;-50
2021/05/21 12:51:04;;;;;;;2.49;1.19;;;;;;;19.77;51.22;99760.91;;;;-63
2021/05/21 12:54:04;;;;;;;1.39;1.22;;;;;;;19.78;51.51;99762.46;;;;-52
2021/05/21 12:57:04;;;;;;;3.29;1.35;;;;;;;19.79;51.55;99766.19;;;;-60
2021/05/21 13:00:05;;;;;;;1.51;1.23;;;;;;;19.78;51.59;99767.42;;;;-60
2021/05/21 13:03:06;;;;;;;2.88;1.33;;;;;;;19.76;51.59;99768.00;;;;-60
2021/05/21 13:06:04;;;;;;;2.01;1.30;;;;;;;19.76;51.76;99762.38;;;;-57
2021/05/21 13:09:04;;;;;;;1.66;1.33;;;;;;;19.77;51.74;99759.52;;;;-53
2021/05/21 13:12:04;;;;;;;1.57;1.30;;;;;;;19.78;51.84;99742.37;;;;-57
2021/05/21 13:15:04;;;;;;;3.68;1.35;;;;;;;19.78;51.92;99735.55;;;;-53
2021/05/21 13:18:04;;;;;;;3.00;1.30;;;;;;;19.81;51.92;99755.84;;;;-53
2021/05/21 13:21:04;;;;;;;1.43;1.20;;;;;;;19.82;51.97;99757.56;;;;-54
2021/05/21 13:24:05;;;;;;;1.98;1.39;;;;;;;19.82;52.00;99759.83;;;;-52
2021/05/21 13:27:04;;;;;;;1.41;1.10;;;;;;;19.84;52.03;99744.38;;;;-49
2021/05/21 13:30:04;;;;;;;1.66;1.27;;;;;;;19.85;52.02;99736.48;;;;-53
2021/05/21 13:33:04;;;;;;;2.20;1.17;;;;;;;19.85;52.04;99739.32;;;;-58
2021/05/21 13:36:04;;;;;;;2.49;1.31;;;;;;;19.85;52.14;99740.77;;;;-49
2021/05/21 13:39:04;;;;;;;1.20;1.10;;;;;;;19.87;52.05;99735.66;;;;-51
2021/05/21 13:42:05;;;;;;;1.89;1.19;;;;;;;19.87;52.00;99733.04;;;;-63
2021/05/21 13:45:04;;;;;;;1.40;1.25;;;;;;;19.88;52.04;99725.24;;;;-54
2021/05/21 13:48:04;;;;;;;3.31;1.14;;;;;;;19.88;52.09;99734.92;;;;-53
2021/05/21 13:51:04;;;;;;;1.41;1.19;;;;;;;19.88;52.15;99730.12;;;;-54
2021/05/21 13:54:04;;;;;;;1.45;1.12;;;;;;;19.88;52.17;99724.59;;;;-51
2021/05/21 13:57:04;;;;;;;1.23;1.13;;;;;;;19.88;52.09;99722.23;;;;-52
2021/05/21 14:00:06;;;;;;;3.16;1.39;;;;;;;19.89;52.00;99723.43;;;;-56
2021/05/21 14:03:04;;;;;;;2.83;1.31;;;;;;;19.88;52.03;99718.23;;;;-58
2021/05/21 14:06:04;;;;;;;2.41;1.23;;;;;;;19.87;52.05;99720.12;;;;-58
2021/05/21 14:09:04;;;;;;;2.50;1.29;;;;;;;19.86;52.00;99716.95;;;;-56
2021/05/21 14:12:04;;;;;;;1.39;1.27;;;;;;;19.85;52.00;99715.66;;;;-54
2021/05/21 14:15:04;;;;;;;2.50;1.20;;;;;;;19.84;51.99;99717.80;;;;-51
2021/05/21 14:18:04;;;;;;;1.22;1.12;;;;;;;19.83;51.89;99728.84;;;;-52
2021/05/21 14:21:04;;;;;;;1.20;1.10;;;;;;;19.84;51.84;99747.69;;;;-51
2021/05/21 14:24:04;;;;;;;1.82;1.20;;;;;;;19.83;51.87;99746.31;;;;-51
2021/05/21 14:27:04;;;;;;;1.35;1.18;;;;;;;19.82;51.90;99737.23;;;;-51
2021/05/21 14:30:04;;;;;;;2.48;1.39;;;;;;;19.81;51.86;99731.53;;;;-51
2021/05/21 14:33:07;;;;;;;1.30;1.20;;;;;;;19.81;51.86;99758.05;;;;-52
2021/05/21 14:36:05;;;;;;;1.45;1.20;;;;;;;19.83;51.88;99750.63;;;;-53
2021/05/21 14:39:04;;;;;;;1.42;1.30;;;;;;;19.84;51.89;99742.02;;;;-54
2021/05/21 14:42:04;;;;;;;1.29;1.19;;;;;;;19.86;51.99;99734.20;;;;-51
2021/05/21 14:45:04;;;;;;;2.48;1.15;;;;;;;19.88;51.90;99728.08;;;;-52
2021/05/21 14:48:04;;;;;;;2.77;1.33;;;;;;;19.93;52.20;99734.56;;;;-50
2021/05/21 14:51:04;;;;;;;1.11;1.01;;;;;;;19.96;52.18;99726.54;;;;-49
2021/05/21 14:54:04;;;;;;;4.61;1.25;;;;;;;20.00;52.21;99707.31;;;;-49
2021/05/21 14:57:04;;;;;;;1.17;1.10;;;;;;;20.04;52.32;99705.11;;;;-53
2021/05/21 15:00:04;;;;;;;1.31;1.13;;;;;;;20.08;52.47;99698.80;;;;-53
2021/05/21 15:03:06;;;;;;;1.31;1.21;;;;;;;20.13;52.48;99701.87;;;;-51
2021/05/21 15:06:04;;;;;;;3.19;1.13;;;;;;;20.18;52.55;99691.16;;;;-49
2021/05/21 15:09:05;;;;;;;2.07;1.20;;;;;;;20.22;52.43;99686.49;;;;-45
2021/05/21 15:12:06;;;;;;;1.28;1.18;;;;;;;20.26;52.30;99689.05;;;;-53
2021/05/21 15:15:09;;;;;;;3.39;1.25;;;;;;;20.31;52.47;99683.95;;;;-52
2021/05/21 15:18:17;;;;;;;2.03;1.17;;;;;;;20.33;52.19;99685.63;;;;-52
2021/05/21 15:24:16;;;;;;;1.27;1.11;;;;;;;20.41;52.49;99680.94;;;;-54
2021/05/21 15:27:04;;;;;;;2.11;1.09;;;;;;;20.42;52.17;99668.16;;;;-51
2021/05/21 15:30:04;;;;;;;1.57;1.19;;;;;;;20.45;52.51;99668.44;;;;-59
2021/05/21 15:33:04;;;;;;;1.19;1.08;;;;;;;20.44;52.22;99658.27;;;;-59
2021/05/21 15:36:04;;;;;;;3.35;1.21;;;;;;;20.43;52.07;99644.69;;;;-51
2021/05/21 15:39:04;;;;;;;1.82;1.32;;;;;;;20.43;52.45;99649.10;;;;-61
2021/05/21 15:42:21;;;;;;;1.24;1.14;;;;;;;20.44;52.52;99641.34;;;;-59
2021/05/21 15:48:04;;;;;;;1.61;1.03;;;;;;;20.48;52.04;99636.59;;;;-60
2021/05/21 15:51:09;;;;;;;1.64;1.10;;;;;;;20.51;51.98;99636.89;;;;-59
2021/05/21 15:54:13;;;;;;;1.79;1.10;;;;;;;20.52;51.85;99637.84;;;;-59
2021/05/21 15:57:19;;;;;;;1.69;1.09;;;;;;;20.54;51.83;99629.43;;;;-59
2021/05/21 16:00:04;;;;;;;1.51;1.20;;;;;;;20.54;51.79;99620.73;;;;-59
2021/05/21 16:03:04;;;;;;;1.52;1.21;;;;;;;20.54;51.73;99613.88;;;;-58
2021/05/21 16:06:04;;;;;;;1.82;1.20;;;;;;;20.55;51.57;99614.45;;;;-58
2021/05/21 16:09:04;;;;;;;1.28;1.18;;;;;;;20.56;51.69;99607.18;;;;-59
2021/05/21 16:12:04;;;;;;;1.66;1.19;;;;;;;20.57;51.54;99607.92;;;;-59
2021/05/21 16:15:04;;;;;;;1.07;1.07;;;;;;;20.57;51.51;99618.02;;;;-60
2021/05/21 16:18:04;;;;;;;2.05;1.14;;;;;;;20.59;51.62;99607.05;;;;-50
2021/05/21 16:21:04;;;;;;;2.09;1.01;;;;;;;20.59;51.55;99611.42;;;;-53
2021/05/21 16:24:04;;;;;;;2.08;1.15;;;;;;;20.60;51.51;99608.72;;;;-53
2021/05/21 16:27:04;;;;;;;2.08;1.13;;;;;;;20.60;51.50;99596.11;;;;-52
2021/05/21 16:30:04;;;;;;;1.75;1.10;;;;;;;20.60;51.38;99588.28;;;;-52
2021/05/21 16:33:04;;;;;;;2.08;1.09;;;;;;;20.61;51.37;99580.22;;;;-53
2021/05/21 16:36:04;;;;;;;1.37;1.12;;;;;;;20.61;51.32;99574.95;;;;-47
2021/05/21 16:39:04;;;;;;;1.84;1.20;;;;;;;20.63;51.72;99570.67;;;;-53
2021/05/21 16:42:04;;;;;;;1.38;1.09;;;;;;;20.65;52.02;99563.64;;;;-53
2021/05/21 16:45:05;;;;;;;1.45;1.00;;;;;;;20.67;52.00;99570.96;;;;-51
2021/05/21 16:48:04;;;;;;;1.44;1.11;;;;;;;20.68;51.89;99566.94;;;;-51
2021/05/21 16:51:04;;;;;;;2.80;1.21;;;;;;;20.70;52.24;99565.44;;;;-51
2021/05/21 16:54:05;;;;;;;1.44;1.07;;;;;;;20.72;52.19;99564.69;;;;-50
2021/05/21 16:57:04;;;;;;;5.15;1.19;;;;;;;20.75;52.08;99562.55;;;;-48
2021/05/21 17:00:04;;;;;;;1.41;1.20;;;;;;;20.75;51.82;99535.50;;;;-58